Ankie — PHKA — position and weather

sailwx.info

Track history (hours):
 
Tides and Currents Weather Stations Pressure Air Temp Water Temp Dewpoint Dewpoint Depression Visibility Wind Speed Wind Dir Waves Ship Positions

Ankie

Last reported at 2018-Jul-22 04:28 UTC. Time now 2018-Jul-22 04:43 UTC.
Position N 54°41' E 020°12'.

Length 89 m; draft 3.6 m.

Type: Cargo ship. MMSI: 244554000.

Date/timePositionNaut miles runAvg speedWind from/ knotsBaromVisibWave heightAir tempDewpointWater temp
2018-Jul-22 04:28N 54°41' E 020°12'0 0.0
2018-Jul-22 03:52N 54°41' E 020°12'0 0.0
2018-Jul-22 03:07N 54°41' E 020°12'0 0.0
2018-Jul-22 02:46N 54°41' E 020°12'0 0.0
2018-Jul-22 02:25N 54°41' E 020°12'0 0.0
2018-Jul-22 01:55N 54°41' E 020°12'0 0.0
2018-Jul-22 01:25N 54°41' E 020°12'0 0.0
2018-Jul-22 00:58N 54°41' E 020°12'0 0.0
2018-Jul-22 00:19N 54°41' E 020°12'0 0.0
2018-Jul-21 23:58N 54°41' E 020°12'0 0.0
2018-Jul-21 23:28N 54°41' E 020°12'0 0.0
2018-Jul-21 22:58N 54°42' E 020°12'0 0.0
2018-Jul-21 21:25N 54°41' E 020°12'0 0.0
2018-Jul-21 20:58N 54°41' E 020°12'0 0.0
2018-Jul-21 20:01N 54°41' E 020°12'0 0.1
2018-Jul-21 19:55N 54°41' E 020°12'0 0.0
2018-Jul-21 18:49N 54°41' E 020°12'0 0.0
2018-Jul-21 18:16N 54°41' E 020°12'0 0.0
2018-Jul-21 17:58N 54°41' E 020°12'0 0.0
2018-Jul-21 17:25N 54°41' E 020°12'0 0.0
2018-Jul-21 16:58N 54°41' E 020°12'0 0.0
2018-Jul-21 16:25N 54°41' E 020°12'0 0.0
2018-Jul-21 15:58N 54°41' E 020°12'0 0.0
2018-Jul-21 15:28N 54°41' E 020°12'0 0.0
2018-Jul-21 14:55N 54°41' E 020°12'0 0.0
2018-Jul-21 14:28N 54°41' E 020°12'0 0.0
2018-Jul-21 08:49N 54°41' E 020°12'0 0.0
2018-Jul-21 08:28N 54°41' E 020°12'0 0.0
2018-Jul-21 07:58N 54°41' E 020°12'0 0.0
2018-Jul-21 07:28N 54°41' E 020°12'0 0.0
2018-Jul-21 06:58N 54°41' E 020°12'0 0.0
2018-Jul-21 06:28N 54°41' E 020°12'0 0.0
2018-Jul-21 06:00N 54°41' E 020°12'0 0.9
2018-Jul-21 05:31N 54°41' E 020°13'0 0.0
2018-Jul-21 05:00N 54°41' E 020°13'0 0.0
2018-Jul-21 04:30N 54°41' E 020°13'0 0.0
2018-Jul-21 04:01N 54°41' E 020°13'0 0.0
2018-Jul-21 03:30N 54°41' E 020°13'2 3.9
2018-Jul-21 03:00N 54°41' E 020°09'4 8.7
2018-Jul-21 02:30N 54°39' E 020°03'5 9.3
2018-Jul-21 02:01N 54°38' E 019°55'4 8.0
2018-Jul-21 01:31N 54°40' E 019°49'1 1.0
2018-Jul-21 01:00N 54°39' E 019°49'0 0.1
2018-Jul-21 00:28N 54°39' E 019°49'0 0.0
2018-Jul-20 23:58N 54°39' E 019°49'0 0.1
2018-Jul-20 23:28N 54°39' E 019°49'0 0.1
2018-Jul-20 22:55N 54°39' E 019°49'0 0.1
2018-Jul-20 22:28N 54°39' E 019°49'0 0.1
2018-Jul-20 21:58N 54°39' E 019°49'0 0.0
2018-Jul-20 21:22N 54°39' E 019°49'0 0.0
2018-Jul-20 20:58N 54°39' E 019°49'0 0.0
2018-Jul-20 19:55N 54°39' E 019°49'0 0.1
2018-Jul-20 19:28N 54°39' E 019°49'0 0.1
2018-Jul-20 17:07N 54°39' E 019°48'0 0.1
2018-Jul-20 16:55N 54°39' E 019°48'0 0.0
2018-Jul-20 07:07N 54°39' E 019°48'0 0.1
2018-Jul-20 06:55N 54°39' E 019°48'0 0.0
2018-Jul-20 05:29N 54°39' E 019°48'2 4.4
2018-Jul-20 04:57N 54°41' E 019°45'511.3
2018-Jul-20 04:29N 54°43' E 019°37'611.4
2018-Jul-20 04:00N 54°46' E 019°29'611.3
2018-Jul-20 03:30N 54°48' E 019°20'611.3
2018-Jul-20 02:57N 54°50' E 019°10'511.4
2018-Jul-20 02:30N 54°53' E 019°02'611.3
2018-Jul-20 02:00N 54°55' E 018°53'611.1
2018-Jul-20 01:30N 54°57' E 018°44'611.3
2018-Jul-20 01:00N 54°59' E 018°35'1511.3
2018-Jul-19 23:38N 55°06' E 018°10'111.3
2018-Jul-19 23:30N 55°06' E 018°08'611.3
2018-Jul-19 23:00N 55°08' E 017°59'611.3
2018-Jul-19 22:30N 55°11' E 017°49'611.3
2018-Jul-19 22:00N 55°13' E 017°40'611.3
2018-Jul-19 21:30N 55°15' E 017°31'611.3
2018-Jul-19 21:00N 55°17' E 017°22'611.4
2018-Jul-19 20:30N 55°19' E 017°13'611.3
2018-Jul-19 20:00N 55°21' E 017°04'611.3
2018-Jul-19 19:30N 55°24' E 016°54'611.3
2018-Jul-19 19:00N 55°26' E 016°45'611.2
2018-Jul-19 18:30N 55°28' E 016°36'611.3
2018-Jul-19 18:00N 55°30' E 016°27'611.5
2018-Jul-19 17:30N 55°33' E 016°18'611.5
2018-Jul-19 17:00N 55°35' E 016°09'611.6
2018-Jul-19 16:30N 55°38' E 015°59'611.7
2018-Jul-19 16:00N 55°40' E 015°50'611.6
2018-Jul-19 15:30N 55°42' E 015°41'611.6
2018-Jul-19 15:00N 55°45' E 015°31'611.4
2018-Jul-19 14:30N 55°47' E 015°22'1111.3
2018-Jul-19 13:30N 55°51' E 015°03'611.2
2018-Jul-19 13:00N 55°53' E 014°54'611.2
2018-Jul-19 12:30N 55°56' E 014°45'611.2
2018-Jul-19 11:59N 55°58' E 014°35'4 7.5
2018-Jul-19 11:29N 56°02' E 014°35'0 0.0
2018-Jul-19 01:42N 56°02' E 014°35'0 0.0
2018-Jul-19 01:21N 56°02' E 014°35'0 0.0
2018-Jul-18 20:48N 56°02' E 014°35'0 0.0
2018-Jul-18 20:27N 56°02' E 014°35'0 0.0
2018-Jul-18 19:51N 56°02' E 014°35'0 0.0
2018-Jul-18 19:27N 56°02' E 014°35'0 0.0
2018-Jul-18 19:00N 56°02' E 014°35'0 0.0
2018-Jul-18 18:24N 56°02' E 014°35'0 0.0
2018-Jul-18 17:37N 56°02' E 014°35'0 0.0
2018-Jul-18 17:23N 56°02' E 014°35'0 0.0
2018-Jul-18 16:52N 56°02' E 014°35'0 0.0
2018-Jul-18 16:28N 56°02' E 014°35'0 0.0
2018-Jul-18 14:57N 56°02' E 014°35'0 0.0
2018-Jul-18 14:30N 56°02' E 014°35'2 1.9
2018-Jul-18 13:25N 56°00' E 014°34'4 8.4
2018-Jul-18 12:55N 55°56' E 014°37'4 9.6
2018-Jul-18 12:29N 55°52' E 014°37'5 9.6
2018-Jul-18 11:59N 55°47' E 014°38'5 9.7
2018-Jul-18 11:30N 55°43' E 014°38'10 9.7
2018-Jul-18 10:30N 55°33' E 014°39'5 9.7
2018-Jul-18 10:00N 55°28' E 014°39'5 9.2
2018-Jul-18 09:30N 55°24' E 014°37'5 9.8
2018-Jul-18 09:00N 55°20' E 014°32'5 9.7
2018-Jul-18 08:30N 55°16' E 014°27'5 9.7
2018-Jul-18 08:00N 55°11' E 014°26'5 9.8
2018-Jul-18 07:30N 55°06' E 014°23'510.0
2018-Jul-18 07:00N 55°01' E 014°21'510.1
2018-Jul-18 06:31N 54°56' E 014°19'510.0
2018-Jul-18 05:59N 54°51' E 014°17'610.0
2018-Jul-18 05:26N 54°46' E 014°15'57 9.3
2018-Jul-17 23:19N 53°49' E 014°20'310.0
2018-Jul-17 23:00N 53°46' E 014°23'510.5
2018-Jul-17 22:30N 53°42' E 014°29'5 9.8
2018-Jul-17 21:59N 53°38' E 014°34'5 9.4
2018-Jul-17 21:28N 53°34' E 014°36'4 8.8
2018-Jul-17 20:58N 53°29' E 014°37'4 6.9
2018-Jul-17 20:28N 53°26' E 014°35'0 0.0
2018-Jul-17 19:58N 53°26' E 014°35'0 0.0
2018-Jul-17 19:28N 53°26' E 014°35'0 0.0
2018-Jul-17 18:58N 53°26' E 014°35'0 0.0
2018-Jul-17 18:28N 53°26' E 014°35'0 0.0
2018-Jul-17 17:58N 53°26' E 014°35'0 0.0
2018-Jul-17 17:28N 53°26' E 014°35'0 0.0
2018-Jul-17 16:58N 53°26' E 014°35'0 0.0
2018-Jul-17 16:28N 53°26' E 014°35'0 0.0
2018-Jul-17 15:58N 53°26' E 014°35'0 0.0
2018-Jul-17 15:28N 53°26' E 014°35'0 0.4
2018-Jul-17 15:00N 53°26' E 014°35'3 6.5
2018-Jul-17 14:30N 53°29' E 014°37'4 8.7
2018-Jul-17 14:00N 53°34' E 014°36'5 9.5
2018-Jul-17 13:30N 53°38' E 014°34'510.0
2018-Jul-17 13:00N 53°42' E 014°29'61 9.1
2018-Jul-17 06:17N 54°36' E 013°40'3 9.8
2018-Jul-17 06:00N 54°38' E 013°37'5 9.9
2018-Jul-17 05:30N 54°42' E 013°31'4 8.9
2018-Jul-17 05:00N 54°43' E 013°23'5 9.7
2018-Jul-17 04:30N 54°42' E 013°15'5 9.8
2018-Jul-17 04:00N 54°42' E 013°06'5 9.8
2018-Jul-17 03:30N 54°41' E 012°58'5 9.8
2018-Jul-17 03:00N 54°41' E 012°50'5 9.5
2018-Jul-17 02:30N 54°39' E 012°42'510.1
2018-Jul-17 02:00N 54°37' E 012°34'5 9.9
2018-Jul-17 01:30N 54°34' E 012°27'510.0
2018-Jul-17 01:00N 54°32' E 012°20'5 9.5
2018-Jul-17 00:30N 54°28' E 012°14'9 8.8
2018-Jul-16 23:30N 54°25' E 011°60'510.3
2018-Jul-16 22:59N 54°25' E 011°51'5 9.9
2018-Jul-16 22:30N 54°26' E 011°43'510.3
2018-Jul-16 22:00N 54°28' E 011°35'510.3
2018-Jul-16 21:30N 54°30' E 011°27'510.2
2018-Jul-16 21:00N 54°33' E 011°19'510.0
2018-Jul-16 20:30N 54°35' E 011°11'510.0
2018-Jul-16 20:01N 54°35' E 011°03'510.0
2018-Jul-16 19:30N 54°35' E 010°54'5 9.8
2018-Jul-16 19:00N 54°36' E 010°46'510.1
2018-Jul-16 18:30N 54°37' E 010°37'510.2
2018-Jul-16 18:00N 54°40' E 010°30'510.6
2018-Jul-16 17:30N 54°44' E 010°24'510.3
2018-Jul-16 17:00N 54°48' E 010°18'3 0.1
2018-Jul-15 09:17N 54°49' E 010°14'310.6
2018-Jul-15 09:00N 54°46' E 010°17'1610.6
2018-Jul-15 07:27N 54°30' E 010°19'510.5
2018-Jul-15 06:58N 54°26' E 010°14'510.1
2018-Jul-15 06:30N 54°22' E 010°10'3 2.5
2018-Jul-15 05:15N 54°22' E 010°05'2 8.0
2018-Jul-15 04:59N 54°22' E 010°01'3 7.1
2018-Jul-15 04:30N 54°21' E 009°56'4 8.3
2018-Jul-15 04:00N 54°22' E 009°49'4 8.2
2018-Jul-15 03:30N 54°20' E 009°43'4 7.4
2018-Jul-15 03:00N 54°17' E 009°38'2 3.8
2018-Jul-15 02:30N 54°15' E 009°37'2 4.7
2018-Jul-15 02:00N 54°13' E 009°36'4 8.3
2018-Jul-15 01:30N 54°11' E 009°29'4 8.3
2018-Jul-15 01:00N 54°09' E 009°23'4 7.5
2018-Jul-15 00:30N 54°06' E 009°20'4 8.2
2018-Jul-15 00:00N 54°02' E 009°18'4 8.0
2018-Jul-14 23:30N 53°58' E 009°16'3 5.2
2018-Jul-14 23:00N 53°56' E 009°13'3 6.8
2018-Jul-14 22:30N 53°54' E 009°09'0 0.7
2018-Jul-14 22:00N 53°54' E 009°09'1 2.9
2018-Jul-14 21:30N 53°53' E 009°06'3 6.6
2018-Jul-14 21:00N 53°52' E 009°01'4 7.6
2018-Jul-14 20:30N 53°51' E 008°55'4 8.0
2018-Jul-14 20:00N 53°50' E 008°48'4 7.4
2018-Jul-14 19:30N 53°52' E 008°43'4 7.4
2018-Jul-14 19:00N 53°55' E 008°40'4 7.5
2018-Jul-14 18:30N 53°58' E 008°35'4 8.1
2018-Jul-14 18:00N 53°59' E 008°28'4 8.3
2018-Jul-14 17:29N 53°59' E 008°21'510.2
2018-Jul-14 17:00N 53°59' E 008°12'5 9.7
2018-Jul-14 16:30N 53°58' E 008°04'5 9.3
2018-Jul-14 16:00N 53°57' E 007°57'5 9.3
2018-Jul-14 15:26N 53°56' E 007°48'9210.7
2018-Jul-14 06:50N 53°31' E 005°18'411.9
2018-Jul-14 06:29N 53°30' E 005°12'711.9
2018-Jul-14 05:54N 53°28' E 005°01'2211.5
2018-Jul-14 03:59N 53°12' E 004°35'612.3
2018-Jul-14 03:30N 53°07' E 004°31'611.9
2018-Jul-14 03:00N 53°01' E 004°29'611.8
2018-Jul-14 02:30N 52°55' E 004°30'611.1
2018-Jul-14 02:00N 52°49' E 004°30'510.6
2018-Jul-14 01:30N 52°44' E 004°30'510.3
2018-Jul-14 01:00N 52°39' E 004°31'510.0
2018-Jul-14 00:30N 52°34' E 004°31'5 9.8
2018-Jul-14 00:00N 52°29' E 004°31'3 6.1
2018-Jul-13 23:30N 52°28' E 004°36'0 0.3
2018-Jul-13 22:59N 52°28' E 004°36'0 0.0
2018-Jul-13 22:29N 52°28' E 004°36'0 0.0
2018-Jul-13 21:59N 52°28' E 004°36'0 0.0
2018-Jul-13 21:29N 52°28' E 004°36'0 0.0
2018-Jul-13 20:59N 52°28' E 004°36'0 0.0
2018-Jul-13 20:29N 52°28' E 004°36'0 0.0
2018-Jul-13 19:56N 52°28' E 004°36'0 0.0
2018-Jul-13 19:23N 52°28' E 004°36'0 0.0
2018-Jul-13 18:59N 52°28' E 004°36'0 0.0
2018-Jul-13 18:29N 52°28' E 004°36'0 0.0
2018-Jul-13 17:59N 52°28' E 004°36'0 0.0
2018-Jul-13 17:29N 52°28' E 004°36'0 0.0
2018-Jul-13 16:59N 52°28' E 004°36'0 0.0
2018-Jul-13 16:29N 52°28' E 004°36'0 0.0
2018-Jul-13 15:59N 52°28' E 004°36'0 0.0
2018-Jul-13 15:29N 52°28' E 004°36'0 0.0
2018-Jul-13 14:59N 52°28' E 004°36'0 0.0
2018-Jul-13 14:29N 52°28' E 004°36'0 0.0
2018-Jul-13 13:29N 52°28' E 004°36'0 0.1
2018-Jul-13 12:59N 52°28' E 004°36'0 0.0
2018-Jul-13 12:29N 52°28' E 004°36'0 0.0
2018-Jul-13 11:59N 52°28' E 004°36'0 0.0
2018-Jul-13 11:29N 52°28' E 004°36'0 0.0
2018-Jul-13 10:53N 52°28' E 004°36'0 0.0
2018-Jul-13 10:29N 52°28' E 004°36'0 0.0
2018-Jul-13 09:59N 52°28' E 004°36'0 0.0
2018-Jul-13 09:29N 52°28' E 004°36'0 0.0
2018-Jul-13 08:59N 52°28' E 004°36'0 0.0
2018-Jul-13 08:29N 52°28' E 004°36'0 0.0
2018-Jul-13 07:59N 52°28' E 004°36'0 0.0
2018-Jul-13 07:29N 52°28' E 004°36'0 0.0
2018-Jul-13 06:59N 52°28' E 004°36'0 0.0
2018-Jul-13 06:29N 52°28' E 004°36'0 0.0
2018-Jul-13 05:59N 52°28' E 004°36'0 0.0
2018-Jul-13 05:29N 52°28' E 004°36'0 0.0
2018-Jul-13 04:59N 52°28' E 004°36'0 0.0
2018-Jul-13 04:29N 52°28' E 004°36'0 0.0
2018-Jul-13 03:59N 52°28' E 004°36'0 0.0
2018-Jul-13 03:29N 52°28' E 004°36'0 0.0
2018-Jul-13 02:56N 52°28' E 004°36'0 0.0
2018-Jul-13 02:29N 52°28' E 004°36'0 0.0
2018-Jul-13 01:59N 52°28' E 004°36'0 0.0
2018-Jul-13 01:29N 52°28' E 004°36'0 0.0
2018-Jul-13 00:59N 52°28' E 004°36'0 0.0
2018-Jul-13 00:29N 52°28' E 004°36'0 0.0
2018-Jul-12 23:59N 52°28' E 004°36'0 0.0
2018-Jul-12 23:29N 52°28' E 004°36'0 0.0
2018-Jul-12 22:59N 52°28' E 004°36'0 0.0
2018-Jul-12 22:29N 52°28' E 004°36'0 0.0
2018-Jul-12 21:59N 52°28' E 004°36'0 0.0
2018-Jul-12 21:29N 52°28' E 004°36'0 0.0
2018-Jul-12 20:59N 52°28' E 004°36'0 0.0
2018-Jul-12 20:29N 52°28' E 004°36'0 0.0
2018-Jul-12 19:59N 52°28' E 004°36'0 0.0
2018-Jul-12 19:29N 52°28' E 004°36'0 0.0
2018-Jul-12 18:59N 52°28' E 004°36'0 0.1
2018-Jul-12 18:30N 52°28' E 004°36'4 8.9
2018-Jul-12 18:00N 52°28' E 004°29'612.5
2018-Jul-12 17:30N 52°28' E 004°19'612.8
2018-Jul-12 17:00N 52°27' E 004°08'0 0.6
2018-Jul-12 16:28N 52°27' E 004°08'0 0.0
2018-Jul-12 15:58N 52°27' E 004°08'0 0.0
2018-Jul-12 15:28N 52°27' E 004°08'0 0.0
2018-Jul-12 14:58N 52°27' E 004°08'0 0.0
2018-Jul-12 14:25N 52°27' E 004°08'0 0.0
2018-Jul-12 13:55N 52°27' E 004°08'0 0.0
2018-Jul-12 13:28N 52°27' E 004°08'0 0.1
2018-Jul-12 12:58N 52°27' E 004°08'0 0.1
2018-Jul-12 12:28N 52°27' E 004°08'0 0.0
2018-Jul-12 11:58N 52°27' E 004°08'0 0.1
2018-Jul-12 11:25N 52°27' E 004°08'0 0.0
2018-Jul-12 10:58N 52°27' E 004°08'0 0.0
2018-Jul-12 10:28N 52°27' E 004°08'0 0.0
2018-Jul-12 09:58N 52°27' E 004°08'0 0.0
2018-Jul-12 09:28N 52°27' E 004°08'0 0.0
2018-Jul-12 08:58N 52°27' E 004°08'0 0.0
2018-Jul-12 08:28N 52°27' E 004°08'0 0.0
2018-Jul-12 07:58N 52°27' E 004°08'0 0.0
2018-Jul-12 07:28N 52°27' E 004°08'0 0.0
2018-Jul-12 06:58N 52°27' E 004°08'0 0.0
2018-Jul-12 06:28N 52°27' E 004°08'0 0.0
2018-Jul-12 05:58N 52°27' E 004°08'0 0.1
2018-Jul-12 05:28N 52°27' E 004°08'0 0.1
2018-Jul-12 04:58N 52°27' E 004°08'0 0.0
2018-Jul-12 04:28N 52°27' E 004°08'  
Track history (hours):
 
Tides and Currents Weather Stations Pressure Air Temp Water Temp Dewpoint Dewpoint Depression Visibility Wind Speed Wind Dir Waves Ship Positions

Ankie

Last reported at 2018-Jul-22 04:28 UTC. Time now 2018-Jul-22 04:43 UTC.
Position N 54°41' E 020°12'.

Length 89 m; draft 3.6 m.

Type: Cargo ship. MMSI: 244554000.

Date/timePositionNaut miles runAvg speedWind from/ knotsBaromVisibWave heightAir tempDewpointWater temp
2018-Jul-22 04:28N 54°41' E 020°12'0 0.0
2018-Jul-22 03:52N 54°41' E 020°12'0 0.0
2018-Jul-22 03:07N 54°41' E 020°12'0 0.0
2018-Jul-22 02:46N 54°41' E 020°12'0 0.0
2018-Jul-22 02:25N 54°41' E 020°12'0 0.0
2018-Jul-22 01:55N 54°41' E 020°12'0 0.0
2018-Jul-22 01:25N 54°41' E 020°12'0 0.0
2018-Jul-22 00:58N 54°41' E 020°12'0 0.0
2018-Jul-22 00:19N 54°41' E 020°12'0 0.0
2018-Jul-21 23:58N 54°41' E 020°12'0 0.0
2018-Jul-21 23:28N 54°41' E 020°12'0 0.0
2018-Jul-21 22:58N 54°42' E 020°12'0 0.0
2018-Jul-21 21:25N 54°41' E 020°12'0 0.0
2018-Jul-21 20:58N 54°41' E 020°12'0 0.0
2018-Jul-21 20:01N 54°41' E 020°12'0 0.1
2018-Jul-21 19:55N 54°41' E 020°12'0 0.0
2018-Jul-21 18:49N 54°41' E 020°12'0 0.0
2018-Jul-21 18:16N 54°41' E 020°12'0 0.0
2018-Jul-21 17:58N 54°41' E 020°12'0 0.0
2018-Jul-21 17:25N 54°41' E 020°12'0 0.0
2018-Jul-21 16:58N 54°41' E 020°12'0 0.0
2018-Jul-21 16:25N 54°41' E 020°12'0 0.0
2018-Jul-21 15:58N 54°41' E 020°12'0 0.0
2018-Jul-21 15:28N 54°41' E 020°12'0 0.0
2018-Jul-21 14:55N 54°41' E 020°12'0 0.0
2018-Jul-21 14:28N 54°41' E 020°12'0 0.0
2018-Jul-21 08:49N 54°41' E 020°12'0 0.0
2018-Jul-21 08:28N 54°41' E 020°12'0 0.0
2018-Jul-21 07:58N 54°41' E 020°12'0 0.0
2018-Jul-21 07:28N 54°41' E 020°12'0 0.0
2018-Jul-21 06:58N 54°41' E 020°12'0 0.0
2018-Jul-21 06:28N 54°41' E 020°12'0 0.0
2018-Jul-21 06:00N 54°41' E 020°12'0 0.9
2018-Jul-21 05:31N 54°41' E 020°13'0 0.0
2018-Jul-21 05:00N 54°41' E 020°13'0 0.0
2018-Jul-21 04:30N 54°41' E 020°13'0 0.0
2018-Jul-21 04:01N 54°41' E 020°13'0 0.0
2018-Jul-21 03:30N 54°41' E 020°13'2 3.9
2018-Jul-21 03:00N 54°41' E 020°09'4 8.7
2018-Jul-21 02:30N 54°39' E 020°03'5 9.3
2018-Jul-21 02:01N 54°38' E 019°55'4 8.0
2018-Jul-21 01:31N 54°40' E 019°49'1 1.0
2018-Jul-21 01:00N 54°39' E 019°49'0 0.1
2018-Jul-21 00:28N 54°39' E 019°49'0 0.0
2018-Jul-20 23:58N 54°39' E 019°49'0 0.1
2018-Jul-20 23:28N 54°39' E 019°49'0 0.1
2018-Jul-20 22:55N 54°39' E 019°49'0 0.1
2018-Jul-20 22:28N 54°39' E 019°49'0 0.1
2018-Jul-20 21:58N 54°39' E 019°49'0 0.0
2018-Jul-20 21:22N 54°39' E 019°49'0 0.0
2018-Jul-20 20:58N 54°39' E 019°49'0 0.0
2018-Jul-20 19:55N 54°39' E 019°49'0 0.1
2018-Jul-20 19:28N 54°39' E 019°49'0 0.1
2018-Jul-20 17:07N 54°39' E 019°48'0 0.1
2018-Jul-20 16:55N 54°39' E 019°48'0 0.0
2018-Jul-20 07:07N 54°39' E 019°48'0 0.1
2018-Jul-20 06:55N 54°39' E 019°48'0 0.0
2018-Jul-20 05:29N 54°39' E 019°48'2 4.4
2018-Jul-20 04:57N 54°41' E 019°45'511.3
2018-Jul-20 04:29N 54°43' E 019°37'611.4
2018-Jul-20 04:00N 54°46' E 019°29'611.3
2018-Jul-20 03:30N 54°48' E 019°20'611.3
2018-Jul-20 02:57N 54°50' E 019°10'511.4
2018-Jul-20 02:30N 54°53' E 019°02'611.3
2018-Jul-20 02:00N 54°55' E 018°53'611.1
2018-Jul-20 01:30N 54°57' E 018°44'611.3
2018-Jul-20 01:00N 54°59' E 018°35'1511.3
2018-Jul-19 23:38N 55°06' E 018°10'111.3
2018-Jul-19 23:30N 55°06' E 018°08'611.3
2018-Jul-19 23:00N 55°08' E 017°59'611.3
2018-Jul-19 22:30N 55°11' E 017°49'611.3
2018-Jul-19 22:00N 55°13' E 017°40'611.3
2018-Jul-19 21:30N 55°15' E 017°31'611.3
2018-Jul-19 21:00N 55°17' E 017°22'611.4
2018-Jul-19 20:30N 55°19' E 017°13'611.3
2018-Jul-19 20:00N 55°21' E 017°04'611.3
2018-Jul-19 19:30N 55°24' E 016°54'611.3
2018-Jul-19 19:00N 55°26' E 016°45'611.2
2018-Jul-19 18:30N 55°28' E 016°36'611.3
2018-Jul-19 18:00N 55°30' E 016°27'611.5
2018-Jul-19 17:30N 55°33' E 016°18'611.5
2018-Jul-19 17:00N 55°35' E 016°09'611.6
2018-Jul-19 16:30N 55°38' E 015°59'611.7
2018-Jul-19 16:00N 55°40' E 015°50'611.6
2018-Jul-19 15:30N 55°42' E 015°41'611.6
2018-Jul-19 15:00N 55°45' E 015°31'611.4
2018-Jul-19 14:30N 55°47' E 015°22'1111.3
2018-Jul-19 13:30N 55°51' E 015°03'611.2
2018-Jul-19 13:00N 55°53' E 014°54'611.2
2018-Jul-19 12:30N 55°56' E 014°45'611.2
2018-Jul-19 11:59N 55°58' E 014°35'4 7.5
2018-Jul-19 11:29N 56°02' E 014°35'0 0.0
2018-Jul-19 01:42N 56°02' E 014°35'0 0.0
2018-Jul-19 01:21N 56°02' E 014°35'0 0.0
2018-Jul-18 20:48N 56°02' E 014°35'0 0.0
2018-Jul-18 20:27N 56°02' E 014°35'0 0.0
2018-Jul-18 19:51N 56°02' E 014°35'0 0.0
2018-Jul-18 19:27N 56°02' E 014°35'0 0.0
2018-Jul-18 19:00N 56°02' E 014°35'0 0.0
2018-Jul-18 18:24N 56°02' E 014°35'0 0.0
2018-Jul-18 17:37N 56°02' E 014°35'0 0.0
2018-Jul-18 17:23N 56°02' E 014°35'0 0.0
2018-Jul-18 16:52N 56°02' E 014°35'0 0.0
2018-Jul-18 16:28N 56°02' E 014°35'0 0.0
2018-Jul-18 14:57N 56°02' E 014°35'0 0.0
2018-Jul-18 14:30N 56°02' E 014°35'2 1.9
2018-Jul-18 13:25N 56°00' E 014°34'4 8.4
2018-Jul-18 12:55N 55°56' E 014°37'4 9.6
2018-Jul-18 12:29N 55°52' E 014°37'5 9.6
2018-Jul-18 11:59N 55°47' E 014°38'5 9.7
2018-Jul-18 11:30N 55°43' E 014°38'10 9.7
2018-Jul-18 10:30N 55°33' E 014°39'5 9.7
2018-Jul-18 10:00N 55°28' E 014°39'5 9.2
2018-Jul-18 09:30N 55°24' E 014°37'5 9.8
2018-Jul-18 09:00N 55°20' E 014°32'5 9.7
2018-Jul-18 08:30N 55°16' E 014°27'5 9.7
2018-Jul-18 08:00N 55°11' E 014°26'5 9.8
2018-Jul-18 07:30N 55°06' E 014°23'510.0
2018-Jul-18 07:00N 55°01' E 014°21'510.1
2018-Jul-18 06:31N 54°56' E 014°19'510.0
2018-Jul-18 05:59N 54°51' E 014°17'610.0
2018-Jul-18 05:26N 54°46' E 014°15'57 9.3
2018-Jul-17 23:19N 53°49' E 014°20'310.0
2018-Jul-17 23:00N 53°46' E 014°23'510.5
2018-Jul-17 22:30N 53°42' E 014°29'5 9.8
2018-Jul-17 21:59N 53°38' E 014°34'5 9.4
2018-Jul-17 21:28N 53°34' E 014°36'4 8.8
2018-Jul-17 20:58N 53°29' E 014°37'4 6.9
2018-Jul-17 20:28N 53°26' E 014°35'0 0.0
2018-Jul-17 19:58N 53°26' E 014°35'0 0.0
2018-Jul-17 19:28N 53°26' E 014°35'0 0.0
2018-Jul-17 18:58N 53°26' E 014°35'0 0.0
2018-Jul-17 18:28N 53°26' E 014°35'0 0.0
2018-Jul-17 17:58N 53°26' E 014°35'0 0.0
2018-Jul-17 17:28N 53°26' E 014°35'0 0.0
2018-Jul-17 16:58N 53°26' E 014°35'0 0.0
2018-Jul-17 16:28N 53°26' E 014°35'0 0.0
2018-Jul-17 15:58N 53°26' E 014°35'0 0.0
2018-Jul-17 15:28N 53°26' E 014°35'0 0.4
2018-Jul-17 15:00N 53°26' E 014°35'3 6.5
2018-Jul-17 14:30N 53°29' E 014°37'4 8.7
2018-Jul-17 14:00N 53°34' E 014°36'5 9.5
2018-Jul-17 13:30N 53°38' E 014°34'510.0
2018-Jul-17 13:00N 53°42' E 014°29'61 9.1
2018-Jul-17 06:17N 54°36' E 013°40'3 9.8
2018-Jul-17 06:00N 54°38' E 013°37'5 9.9
2018-Jul-17 05:30N 54°42' E 013°31'4 8.9
2018-Jul-17 05:00N 54°43' E 013°23'5 9.7
2018-Jul-17 04:30N 54°42' E 013°15'5 9.8
2018-Jul-17 04:00N 54°42' E 013°06'5 9.8
2018-Jul-17 03:30N 54°41' E 012°58'5 9.8
2018-Jul-17 03:00N 54°41' E 012°50'5 9.5
2018-Jul-17 02:30N 54°39' E 012°42'510.1
2018-Jul-17 02:00N 54°37' E 012°34'5 9.9
2018-Jul-17 01:30N 54°34' E 012°27'510.0
2018-Jul-17 01:00N 54°32' E 012°20'5 9.5
2018-Jul-17 00:30N 54°28' E 012°14'9 8.8
2018-Jul-16 23:30N 54°25' E 011°60'510.3
2018-Jul-16 22:59N 54°25' E 011°51'5 9.9
2018-Jul-16 22:30N 54°26' E 011°43'510.3
2018-Jul-16 22:00N 54°28' E 011°35'510.3
2018-Jul-16 21:30N 54°30' E 011°27'510.2
2018-Jul-16 21:00N 54°33' E 011°19'510.0
2018-Jul-16 20:30N 54°35' E 011°11'510.0
2018-Jul-16 20:01N 54°35' E 011°03'510.0
2018-Jul-16 19:30N 54°35' E 010°54'5 9.8
2018-Jul-16 19:00N 54°36' E 010°46'510.1
2018-Jul-16 18:30N 54°37' E 010°37'510.2
2018-Jul-16 18:00N 54°40' E 010°30'510.6
2018-Jul-16 17:30N 54°44' E 010°24'510.3
2018-Jul-16 17:00N 54°48' E 010°18'3 0.1
2018-Jul-15 09:17N 54°49' E 010°14'310.6
2018-Jul-15 09:00N 54°46' E 010°17'1610.6
2018-Jul-15 07:27N 54°30' E 010°19'510.5
2018-Jul-15 06:58N 54°26' E 010°14'510.1
2018-Jul-15 06:30N 54°22' E 010°10'3 2.5
2018-Jul-15 05:15N 54°22' E 010°05'2 8.0
2018-Jul-15 04:59N 54°22' E 010°01'3 7.1
2018-Jul-15 04:30N 54°21' E 009°56'4 8.3
2018-Jul-15 04:00N 54°22' E 009°49'4 8.2
2018-Jul-15 03:30N 54°20' E 009°43'4 7.4
2018-Jul-15 03:00N 54°17' E 009°38'2 3.8
2018-Jul-15 02:30N 54°15' E 009°37'2 4.7
2018-Jul-15 02:00N 54°13' E 009°36'4 8.3
2018-Jul-15 01:30N 54°11' E 009°29'4 8.3
2018-Jul-15 01:00N 54°09' E 009°23'4 7.5
2018-Jul-15 00:30N 54°06' E 009°20'4 8.2
2018-Jul-15 00:00N 54°02' E 009°18'4 8.0
2018-Jul-14 23:30N 53°58' E 009°16'3 5.2
2018-Jul-14 23:00N 53°56' E 009°13'3 6.8
2018-Jul-14 22:30N 53°54' E 009°09'0 0.7
2018-Jul-14 22:00N 53°54' E 009°09'1 2.9
2018-Jul-14 21:30N 53°53' E 009°06'3 6.6
2018-Jul-14 21:00N 53°52' E 009°01'4 7.6
2018-Jul-14 20:30N 53°51' E 008°55'4 8.0
2018-Jul-14 20:00N 53°50' E 008°48'4 7.4
2018-Jul-14 19:30N 53°52' E 008°43'4 7.4
2018-Jul-14 19:00N 53°55' E 008°40'4 7.5
2018-Jul-14 18:30N 53°58' E 008°35'4 8.1
2018-Jul-14 18:00N 53°59' E 008°28'4 8.3
2018-Jul-14 17:29N 53°59' E 008°21'510.2
2018-Jul-14 17:00N 53°59' E 008°12'5 9.7
2018-Jul-14 16:30N 53°58' E 008°04'5 9.3
2018-Jul-14 16:00N 53°57' E 007°57'5 9.3
2018-Jul-14 15:26N 53°56' E 007°48'9210.7
2018-Jul-14 06:50N 53°31' E 005°18'411.9
2018-Jul-14 06:29N 53°30' E 005°12'711.9
2018-Jul-14 05:54N 53°28' E 005°01'2211.5
2018-Jul-14 03:59N 53°12' E 004°35'612.3
2018-Jul-14 03:30N 53°07' E 004°31'611.9
2018-Jul-14 03:00N 53°01' E 004°29'611.8
2018-Jul-14 02:30N 52°55' E 004°30'611.1
2018-Jul-14 02:00N 52°49' E 004°30'510.6
2018-Jul-14 01:30N 52°44' E 004°30'510.3
2018-Jul-14 01:00N 52°39' E 004°31'510.0
2018-Jul-14 00:30N 52°34' E 004°31'5 9.8
2018-Jul-14 00:00N 52°29' E 004°31'3 6.1
2018-Jul-13 23:30N 52°28' E 004°36'0 0.3
2018-Jul-13 22:59N 52°28' E 004°36'0 0.0
2018-Jul-13 22:29N 52°28' E 004°36'0 0.0
2018-Jul-13 21:59N 52°28' E 004°36'0 0.0
2018-Jul-13 21:29N 52°28' E 004°36'0 0.0
2018-Jul-13 20:59N 52°28' E 004°36'0 0.0
2018-Jul-13 20:29N 52°28' E 004°36'0 0.0
2018-Jul-13 19:56N 52°28' E 004°36'0 0.0
2018-Jul-13 19:23N 52°28' E 004°36'0 0.0
2018-Jul-13 18:59N 52°28' E 004°36'0 0.0
2018-Jul-13 18:29N 52°28' E 004°36'0 0.0
2018-Jul-13 17:59N 52°28' E 004°36'0 0.0
2018-Jul-13 17:29N 52°28' E 004°36'0 0.0
2018-Jul-13 16:59N 52°28' E 004°36'0 0.0
2018-Jul-13 16:29N 52°28' E 004°36'0 0.0
2018-Jul-13 15:59N 52°28' E 004°36'0 0.0
2018-Jul-13 15:29N 52°28' E 004°36'0 0.0
2018-Jul-13 14:59N 52°28' E 004°36'0 0.0
2018-Jul-13 14:29N 52°28' E 004°36'0 0.0
2018-Jul-13 13:29N 52°28' E 004°36'0 0.1
2018-Jul-13 12:59N 52°28' E 004°36'0 0.0
2018-Jul-13 12:29N 52°28' E 004°36'0 0.0
2018-Jul-13 11:59N 52°28' E 004°36'0 0.0
2018-Jul-13 11:29N 52°28' E 004°36'0 0.0
2018-Jul-13 10:53N 52°28' E 004°36'0 0.0
2018-Jul-13 10:29N 52°28' E 004°36'0 0.0
2018-Jul-13 09:59N 52°28' E 004°36'0 0.0
2018-Jul-13 09:29N 52°28' E 004°36'0 0.0
2018-Jul-13 08:59N 52°28' E 004°36'0 0.0
2018-Jul-13 08:29N 52°28' E 004°36'0 0.0
2018-Jul-13 07:59N 52°28' E 004°36'0 0.0
2018-Jul-13 07:29N 52°28' E 004°36'0 0.0
2018-Jul-13 06:59N 52°28' E 004°36'0 0.0
2018-Jul-13 06:29N 52°28' E 004°36'0 0.0
2018-Jul-13 05:59N 52°28' E 004°36'0 0.0
2018-Jul-13 05:29N 52°28' E 004°36'0 0.0
2018-Jul-13 04:59N 52°28' E 004°36'0 0.0
2018-Jul-13 04:29N 52°28' E 004°36'0 0.0
2018-Jul-13 03:59N 52°28' E 004°36'0 0.0
2018-Jul-13 03:29N 52°28' E 004°36'0 0.0
2018-Jul-13 02:56N 52°28' E 004°36'0 0.0
2018-Jul-13 02:29N 52°28' E 004°36'0 0.0
2018-Jul-13 01:59N 52°28' E 004°36'0 0.0
2018-Jul-13 01:29N 52°28' E 004°36'0 0.0
2018-Jul-13 00:59N 52°28' E 004°36'0 0.0
2018-Jul-13 00:29N 52°28' E 004°36'0 0.0
2018-Jul-12 23:59N 52°28' E 004°36'0 0.0
2018-Jul-12 23:29N 52°28' E 004°36'0 0.0
2018-Jul-12 22:59N 52°28' E 004°36'0 0.0
2018-Jul-12 22:29N 52°28' E 004°36'0 0.0
2018-Jul-12 21:59N 52°28' E 004°36'0 0.0
2018-Jul-12 21:29N 52°28' E 004°36'0 0.0
2018-Jul-12 20:59N 52°28' E 004°36'0 0.0
2018-Jul-12 20:29N 52°28' E 004°36'0 0.0
2018-Jul-12 19:59N 52°28' E 004°36'0 0.0
2018-Jul-12 19:29N 52°28' E 004°36'0 0.0
2018-Jul-12 18:59N 52°28' E 004°36'0 0.1
2018-Jul-12 18:30N 52°28' E 004°36'4 8.9
2018-Jul-12 18:00N 52°28' E 004°29'612.5
2018-Jul-12 17:30N 52°28' E 004°19'612.8
2018-Jul-12 17:00N 52°27' E 004°08'0 0.6
2018-Jul-12 16:28N 52°27' E 004°08'0 0.0
2018-Jul-12 15:58N 52°27' E 004°08'0 0.0
2018-Jul-12 15:28N 52°27' E 004°08'0 0.0
2018-Jul-12 14:58N 52°27' E 004°08'0 0.0
2018-Jul-12 14:25N 52°27' E 004°08'0 0.0
2018-Jul-12 13:55N 52°27' E 004°08'0 0.0
2018-Jul-12 13:28N 52°27' E 004°08'0 0.1
2018-Jul-12 12:58N 52°27' E 004°08'0 0.1
2018-Jul-12 12:28N 52°27' E 004°08'0 0.0
2018-Jul-12 11:58N 52°27' E 004°08'0 0.1
2018-Jul-12 11:25N 52°27' E 004°08'0 0.0
2018-Jul-12 10:58N 52°27' E 004°08'0 0.0
2018-Jul-12 10:28N 52°27' E 004°08'0 0.0
2018-Jul-12 09:58N 52°27' E 004°08'0 0.0
2018-Jul-12 09:28N 52°27' E 004°08'0 0.0
2018-Jul-12 08:58N 52°27' E 004°08'0 0.0
2018-Jul-12 08:28N 52°27' E 004°08'0 0.0
2018-Jul-12 07:58N 52°27' E 004°08'0 0.0
2018-Jul-12 07:28N 52°27' E 004°08'0 0.0
2018-Jul-12 06:58N 52°27' E 004°08'0 0.0
2018-Jul-12 06:28N 52°27' E 004°08'0 0.0
2018-Jul-12 05:58N 52°27' E 004°08'0 0.1
2018-Jul-12 05:28N 52°27' E 004°08'0 0.1
2018-Jul-12 04:58N 52°27' E 004°08'0 0.0
2018-Jul-12 04:28N 52°27' E 004°08'  

Dump ship's entire track history